Time;durP1;ratioP1;P1;durP2;ratioP2;P2;SDS_P1;SDS_P2;PMS_P1;PMS_P2;Temp;Humidity;BMP_temperature;BMP_pressure;BME280_temperature;BME280_humidity;BME280_pressure;Samples;Min_cycle;Max_cycle;Signal;HPM_P1;HPM_P2
2022/08/04 00:02:26;;;;;;;4.40;3.03;;;;;;;23.18;55.07;99143.47;4994727;28;21012;-77
2022/08/04 00:05:09;;;;;;;3.53;2.80;;;;;;;23.11;55.37;99140.72;4992674;28;20452;-76
2022/08/04 00:07:45;;;;;;;3.77;3.43;;;;;;;23.01;55.39;99148.25;4990289;28;21089;-76
2022/08/04 00:10:15;;;;;;;3.13;2.80;;;;;;;22.88;56.04;99138.19;4990305;28;20490;-76
2022/08/04 00:12:45;;;;;;;3.90;3.50;;;;;;;22.77;56.43;99143.19;5008129;22;20912;-77
2022/08/04 00:15:15;;;;;;;3.80;3.40;;;;;;;22.64;56.56;99133.97;4990263;28;20525;-78
2022/08/04 00:17:53;;;;;;;5.23;3.63;;;;;;;22.57;57.24;99135.72;4991510;28;20556;-77
2022/08/04 00:20:20;;;;;;;3.37;3.07;;;;;;;22.57;56.84;99134.91;4990246;28;20462;-77
2022/08/04 00:22:47;;;;;;;7.10;2.87;;;;;;;22.57;56.76;99133.06;5003266;28;20486;-77
2022/08/04 00:25:12;;;;;;;5.97;2.73;;;;;;;22.56;57.17;99143.97;5012649;28;20516;-77
2022/08/04 00:27:38;;;;;;;3.77;3.47;;;;;;;22.56;57.11;99143.97;5014727;28;20477;-77
2022/08/04 00:30:05;;;;;;;3.63;3.33;;;;;;;22.56;57.36;99146.63;5014244;28;20312;-77
2022/08/04 00:32:32;;;;;;;5.57;3.22;;;;;;;22.56;57.38;99147.47;5014598;28;20469;-77
2022/08/04 00:34:58;;;;;;;3.80;3.13;;;;;;;22.54;57.51;99149.50;5017009;28;20200;-77
2022/08/04 00:37:25;;;;;;;5.90;3.10;;;;;;;22.51;57.59;99160.56;5010706;28;20978;-78
2022/08/04 00:39:53;;;;;;;3.50;3.20;;;;;;;22.48;57.61;99155.59;5004786;28;20466;-77
2022/08/04 00:42:46;;;;;;;3.37;3.07;;;;;;;22.41;57.91;99162.69;5020304;28;20485;-77
2022/08/04 00:45:18;;;;;;;3.57;3.37;;;;;;;22.35;57.96;99160.75;5013357;28;20602;-77
2022/08/04 00:47:55;;;;;;;3.40;3.10;;;;;;;22.28;57.96;99166.84;5024213;28;20454;-77
2022/08/04 00:50:36;;;;;;;3.53;3.23;;;;;;;22.19;57.86;99177.81;5010168;28;20456;-77
2022/08/04 00:53:08;;;;;;;4.17;3.40;;;;;;;22.11;58.16;99178.69;5009392;28;20814;-77
2022/08/04 00:56:02;;;;;;;3.53;3.20;;;;;;;22.07;58.13;99167.53;5017459;28;20957;-77
2022/08/04 00:58:52;;;;;;;5.07;3.40;;;;;;;22.07;58.00;99169.38;5007957;28;20544;-77
2022/08/04 01:01:28;;;;;;;3.40;2.53;;;;;;;22.02;58.44;99166.44;5014034;28;21216;-77
2022/08/04 01:04:22;;;;;;;3.47;3.17;;;;;;;21.96;58.69;99167.97;5017845;28;20982;-77
2022/08/04 01:07:21;;;;;;;3.60;2.90;;;;;;;21.86;59.09;99173.56;5007160;28;20532;-76
2022/08/04 01:09:52;;;;;;;3.37;3.07;;;;;;;21.76;59.43;99174.84;5013142;28;20495;-77
2022/08/04 01:12:47;;;;;;;5.47;4.47;;;;;;;21.76;59.47;99185.53;5015849;28;20491;-77
2022/08/04 01:15:33;;;;;;;3.40;2.87;;;;;;;21.76;59.50;99186.34;5008227;28;20483;-78
2022/08/04 01:18:04;;;;;;;3.60;3.30;;;;;;;21.77;59.93;99185.38;5011921;28;21022;-78
2022/08/04 01:20:39;;;;;;;4.70;4.30;;;;;;;21.76;59.54;99185.53;5012204;28;20465;-78
2022/08/04 01:23:23;;;;;;;3.80;3.50;;;;;;;21.73;59.86;99192.06;5011861;28;20960;-78
2022/08/04 01:26:17;;;;;;;3.47;3.27;;;;;;;21.66;60.12;99185.78;5018619;28;20864;-78
2022/08/04 01:29:01;;;;;;;3.63;3.30;;;;;;;21.65;60.18;99184.13;5020113;28;20900;-77
2022/08/04 01:31:50;;;;;;;3.90;3.60;;;;;;;21.62;60.50;99187.16;5006303;28;20485;-78
2022/08/04 01:34:19;;;;;;;5.30;3.73;;;;;;;21.56;60.99;99187.88;5010513;28;20953;-78
2022/08/04 01:37:11;;;;;;;17.00;4.70;;;;;;;21.51;61.21;99180.38;5019820;28;20533;-77
2022/08/04 01:39:48;;;;;;;3.70;3.27;;;;;;;21.52;61.20;99182.06;5013651;28;21207;-78
2022/08/04 01:42:17;;;;;;;4.33;3.40;;;;;;;21.49;61.17;99178.91;5012491;28;20476;-78
2022/08/04 01:44:46;;;;;;;4.17;3.40;;;;;;;21.40;61.85;99178.97;5019858;28;20521;-78
2022/08/04 01:47:15;;;;;;;3.40;3.10;;;;;;;21.37;61.99;99183.81;5020678;28;20520;-78
2022/08/04 01:49:46;;;;;;;5.50;3.40;;;;;;;21.33;62.05;99182.47;5019737;28;20845;-78
2022/08/04 01:52:16;;;;;;;3.60;3.03;;;;;;;21.31;62.12;99184.53;5009068;28;20557;-77
2022/08/04 01:54:42;;;;;;;4.87;3.93;;;;;;;21.20;62.65;99181.25;5009335;28;21080;-78
2022/08/04 01:57:11;;;;;;;4.50;3.27;;;;;;;21.12;62.71;99180.47;5008746;28;20463;-77
2022/08/04 01:59:38;;;;;;;3.70;3.40;;;;;;;21.12;62.67;99180.47;5012784;28;20470;-78
2022/08/04 02:02:05;;;;;;;3.43;3.23;;;;;;;21.10;62.80;99177.97;5006305;28;20489;-78
2022/08/04 02:04:31;;;;;;;6.70;3.03;;;;;;;21.07;62.88;99175.63;5010228;28;20455;-78
2022/08/04 02:07:10;;;;;;;3.40;3.10;;;;;;;21.06;63.07;99184.63;5012089;28;20990;-78
2022/08/04 02:09:51;;;;;;;4.50;4.10;;;;;;;21.05;62.86;99177.66;5008290;28;20227;-78
2022/08/04 02:12:53;;;;;;;5.90;3.30;;;;;;;20.99;63.17;99181.84;5011028;28;20503;-78
2022/08/04 02:15:29;;;;;;;4.30;3.90;;;;;;;20.96;63.25;99173.38;5007166;28;20456;-78
2022/08/04 02:18:16;;;;;;;3.70;3.40;;;;;;;20.88;63.48;99184.09;5010066;28;20541;-77
2022/08/04 02:20:47;;;;;;;3.33;3.13;;;;;;;20.74;63.89;99181.16;5011475;28;20560;-78
2022/08/04 02:23:14;;;;;;;4.67;3.63;;;;;;;20.70;63.94;99176.31;5016291;28;20518;-78
2022/08/04 02:25:47;;;;;;;3.63;2.77;;;;;;;20.68;64.10;99183.66;5001695;28;20479;-78
2022/08/04 02:28:37;;;;;;;5.30;3.77;;;;;;;20.69;64.04;99177.34;5003221;28;20520;-77
2022/08/04 02:31:20;;;;;;;4.57;3.10;;;;;;;20.70;63.99;99181.66;5001096;28;20458;-77
2022/08/04 02:34:13;;;;;;;5.27;4.70;;;;;;;20.68;64.02;99176.47;5001285;28;20458;-77
2022/08/04 02:36:40;;;;;;;5.83;4.20;;;;;;;20.66;64.15;99175.00;5000704;28;20472;-77
2022/08/04 02:39:08;;;;;;;3.70;3.40;;;;;;;20.65;64.21;99173.34;5011699;28;20458;-77
2022/08/04 02:41:34;;;;;;;4.37;3.97;;;;;;;20.61;64.29;99170.19;5018138;28;20482;-78
2022/08/04 02:44:03;;;;;;;3.83;3.20;;;;;;;20.61;64.50;99175.53;5015072;28;20796;-78
2022/08/04 02:46:30;;;;;;;3.73;3.43;;;;;;;20.64;64.38;99172.50;5014397;28;20976;-78
2022/08/04 02:48:56;;;;;;;3.40;3.10;;;;;;;20.66;64.45;99172.34;5011184;28;20457;-78
2022/08/04 02:51:30;;;;;;;4.73;4.30;;;;;;;20.63;64.56;99175.34;5016263;28;20973;-77
2022/08/04 02:53:58;;;;;;;4.97;4.13;;;;;;;20.62;64.66;99173.69;5010520;28;20219;-77
2022/08/04 02:56:27;;;;;;;7.00;3.57;;;;;;;20.60;64.59;99176.50;5010510;28;20540;-77
2022/08/04 02:58:58;;;;;;;4.23;3.13;;;;;;;20.59;64.70;99174.84;5018993;28;20466;-78
2022/08/04 03:01:24;;;;;;;4.50;3.60;;;;;;;20.58;64.80;99172.34;5009104;28;21372;-77
2022/08/04 03:04:10;;;;;;;4.00;3.63;;;;;;;20.57;64.84;99176.84;5011307;28;20548;-77
2022/08/04 03:06:50;;;;;;;3.50;3.20;;;;;;;20.58;64.72;99177.69;5002717;28;20223;-78
2022/08/04 03:09:29;;;;;;;3.90;3.47;;;;;;;20.58;64.71;99172.34;5014609;28;20494;-78
2022/08/04 03:12:32;;;;;;;3.97;3.23;;;;;;;20.60;64.77;99176.50;5010286;28;20549;-77
2022/08/04 03:15:00;;;;;;;4.37;3.97;;;;;;;20.60;64.56;99170.34;5012177;28;20752;-78
2022/08/04 03:17:59;;;;;;;7.80;3.73;;;;;;;20.54;64.85;99170.03;5010929;28;20903;-78
2022/08/04 03:21:08;;;;;;;3.70;3.30;;;;;;;20.45;65.01;99171.03;5005579;28;20461;-79
2022/08/04 03:23:49;;;;;;;5.37;3.50;;;;;;;20.37;65.19;99168.41;5019285;28;20533;-77
2022/08/04 03:26:56;;;;;;;4.60;4.03;;;;;;;20.27;65.21;99163.25;5008660;28;20488;-77
2022/08/04 03:29:39;;;;;;;6.33;3.80;;;;;;;20.19;65.22;99170.44;5014855;28;20487;-78
2022/08/04 03:32:46;;;;;;;4.07;3.60;;;;;;;20.13;65.20;99177.28;4997529;28;20486;-78
2022/08/04 03:35:50;;;;;;;4.30;3.43;;;;;;;20.15;64.96;99174.47;5004271;28;20480;-78
2022/08/04 03:38:52;;;;;;;4.10;3.40;;;;;;;20.20;64.88;99170.28;4999822;28;20468;-77
2022/08/04 03:41:44;;;;;;;3.10;2.80;;;;;;;20.24;64.58;99176.09;5000975;28;20459;-78
2022/08/04 03:44:44;;;;;;;4.30;3.90;;;;;;;20.26;64.57;99174.94;5010790;28;20439;-78
2022/08/04 03:47:27;;;;;;;4.17;3.77;;;;;;;20.30;64.27;99168.25;5008369;28;20408;-78
2022/08/04 03:49:58;;;;;;;4.40;3.70;;;;;;;20.30;64.30;99170.06;5013027;28;20474;-78
2022/08/04 03:53:10;;;;;;;3.63;3.30;;;;;;;20.30;64.25;99178.09;5014906;28;20453;-77
2022/08/04 03:55:38;;;;;;;4.83;3.97;;;;;;;20.24;64.30;99178.78;5013783;28;20541;-78
2022/08/04 03:59:00;;;;;;;3.53;3.23;;;;;;;20.16;64.55;99173.47;5008207;28;20462;-78
2022/08/04 04:01:59;;;;;;;4.17;3.57;;;;;;;20.16;64.44;99173.47;5010576;28;20993;-77
2022/08/04 04:05:06;;;;;;;4.20;3.80;;;;;;;20.23;65.08;99169.94;5010065;28;21017;-77
2022/08/04 04:07:40;;;;;;;3.40;3.10;;;;;;;20.25;65.28;99164.41;5011961;28;20582;-77
2022/08/04 04:10:35;;;;;;;6.70;3.30;;;;;;;20.29;65.07;99179.09;5014699;28;20465;-78
2022/08/04 04:13:28;;;;;;;4.63;3.10;;;;;;;20.28;64.77;99177.41;5017465;28;20495;-78
2022/08/04 04:16:09;;;;;;;4.10;3.80;;;;;;;20.27;64.70;99183.75;5007299;28;20510;-77
2022/08/04 04:18:59;;;;;;;3.63;3.37;;;;;;;20.21;64.97;99187.94;5015280;28;20507;-77
2022/08/04 04:21:58;;;;;;;5.33;4.43;;;;;;;20.16;65.00;99189.44;5014379;28;20495;-77
2022/08/04 04:24:35;;;;;;;3.67;3.37;;;;;;;20.16;64.95;99184.13;5012675;28;20455;-78
2022/08/04 04:27:07;;;;;;;3.80;3.50;;;;;;;20.17;64.90;99188.44;5022167;28;20448;-77
2022/08/04 04:29:59;;;;;;;5.50;3.40;;;;;;;20.18;65.05;99187.47;5022655;28;20494;-77
2022/08/04 04:32:52;;;;;;;4.97;4.40;;;;;;;20.20;65.02;99196.97;5006226;28;20477;-77
2022/08/04 04:35:36;;;;;;;3.60;3.30;;;;;;;20.21;64.95;99192.44;5016466;28;20945;-77
2022/08/04 04:38:28;;;;;;;4.37;3.90;;;;;;;20.24;64.80;99194.78;5010121;28;20441;-78
2022/08/04 04:41:14;;;;;;;4.23;3.70;;;;;;;20.22;64.76;99186.94;5019979;28;20465;-78
2022/08/04 04:44:22;;;;;;;3.70;3.40;;;;;;;20.21;64.90;99185.28;5009536;28;20857;-78
2022/08/04 04:47:01;;;;;;;4.03;3.70;;;;;;;20.22;64.61;99194.94;5012827;28;21095;-78
2022/08/04 04:49:36;;;;;;;3.30;3.00;;;;;;;20.20;64.80;99202.28;5005282;28;20509;-78
2022/08/04 04:52:27;;;;;;;4.00;3.53;;;;;;;20.18;64.90;99203.47;5015083;28;20481;-78
2022/08/04 04:55:01;;;;;;;4.90;4.10;;;;;;;20.20;64.75;99207.63;5015351;28;20539;-77
2022/08/04 04:57:33;;;;;;;4.00;3.67;;;;;;;20.29;64.42;99205.75;5005117;28;20443;-78
2022/08/04 05:00:10;;;;;;;5.20;3.70;;;;;;;20.37;64.25;99203.06;5012904;28;20920;-77
2022/08/04 05:03:03;;;;;;;4.30;3.90;;;;;;;20.54;64.03;99198.56;5018650;28;20479;-78
2022/08/04 05:05:47;;;;;;;3.90;3.60;;;;;;;21.54;61.01;99204.06;5010356;28;20950;-77
2022/08/04 05:08:40;;;;;;;4.30;3.90;;;;;;;23.26;55.83;99198.81;5014144;28;20458;-78
2022/08/04 05:11:14;;;;;;;4.80;3.43;;;;;;;24.87;51.41;99199.88;5018117;28;20498;-79
2022/08/04 05:13:51;;;;;;;13.70;5.30;;;;;;;25.98;48.40;99196.88;5012575;28;20862;-79
2022/08/04 05:16:23;;;;;;;3.97;3.60;;;;;;;26.84;46.35;99188.66;5014383;28;20458;-76
2022/08/04 05:18:56;;;;;;;4.10;3.70;;;;;;;27.79;44.50;99191.44;5000934;28;20830;-76
2022/08/04 05:21:38;;;;;;;4.53;4.10;;;;;;;28.77;42.07;99189.06;5008088;28;20497;-77
2022/08/04 05:24:08;;;;;;;3.77;3.40;;;;;;;29.61;40.39;99186.50;5026888;28;20485;-77
2022/08/04 05:26:38;;;;;;;3.90;3.40;;;;;;;30.29;38.83;99187.91;5025358;28;20451;-76
2022/08/04 05:29:10;;;;;;;4.90;3.53;;;;;;;30.84;37.49;99180.19;4999499;28;20475;-76
2022/08/04 05:31:39;;;;;;;3.90;3.40;;;;;;;31.37;36.90;99175.50;5014765;28;20506;-77
2022/08/04 05:34:10;;;;;;;3.33;2.80;;;;;;;32.01;35.26;99179.88;5010385;28;20466;-76
2022/08/04 05:36:49;;;;;;;3.47;3.20;;;;;;;32.65;34.35;99177.53;5017475;28;20997;-77
2022/08/04 05:39:20;;;;;;;6.00;2.87;;;;;;;33.21;33.51;99169.22;5010079;28;20477;-77
2022/08/04 05:41:48;;;;;;;3.33;3.07;;;;;;;33.66;32.53;99174.28;5011645;28;20518;-77
2022/08/04 05:44:18;;;;;;;3.30;3.00;;;;;;;34.09;31.68;99177.91;5008185;28;21038;-77
2022/08/04 05:46:47;;;;;;;3.60;3.10;;;;;;;34.53;30.60;99176.81;5015561;28;20473;-77
2022/08/04 05:49:13;;;;;;;3.90;3.10;;;;;;;34.91;29.80;99172.06;5016737;28;20557;-77
2022/08/04 05:51:40;;;;;;;3.73;2.93;;;;;;;35.24;29.02;99176.28;5014312;28;20490;-77
2022/08/04 05:54:08;;;;;;;4.90;3.10;;;;;;;35.56;28.87;99177.97;5017495;28;20460;-77
2022/08/04 05:56:36;;;;;;;7.20;3.60;;;;;;;35.83;27.81;99178.53;5009990;28;20474;-77
2022/08/04 05:59:04;;;;;;;12.47;4.17;;;;;;;36.00;27.65;99183.72;5009199;28;21697;-76
2022/08/04 06:01:31;;;;;;;27.00;5.93;;;;;;;36.03;26.93;99179.63;5013500;28;20450;-76
2022/08/04 06:04:00;;;;;;;15.52;5.13;;;;;;;36.09;25.90;99179.34;5013140;28;20829;-77
2022/08/04 06:06:26;;;;;;;6.47;3.30;;;;;;;36.17;25.42;99180.72;5008858;28;20214;-76
2022/08/04 06:08:53;;;;;;;3.37;2.80;;;;;;;35.62;26.38;99190.56;5016642;28;21549;-77
2022/08/04 06:11:20;;;;;;;8.77;3.60;;;;;;;35.69;26.21;99182.91;5004800;28;20459;-76
2022/08/04 06:14:02;;;;;;;3.70;3.40;;;;;;;36.00;25.63;99177.41;5011005;28;20491;-78
2022/08/04 06:16:34;;;;;;;9.20;3.80;;;;;;;36.23;25.80;99171.41;5005320;28;20821;-78
2022/08/04 06:19:05;;;;;;;5.97;3.10;;;;;;;36.48;25.22;99186.09;5013120;28;20450;-78
2022/08/04 06:21:32;;;;;;;8.23;3.63;;;;;;;36.62;25.11;99189.94;5006257;28;20458;-78
2022/08/04 06:23:58;;;;;;;13.40;4.20;;;;;;;36.82;24.89;99182.72;5013215;28;20494;-78
2022/08/04 06:26:26;;;;;;;5.57;3.10;;;;;;;37.06;24.70;99182.91;5010253;28;20447;-78
2022/08/04 06:28:53;;;;;;;3.83;3.27;;;;;;;37.25;24.22;99180.31;5013291;28;20566;-78
2022/08/04 06:34:06;;;;;;;3.90;2.97;;;;;;;37.26;23.66;99182.78;5010818;28;20475;-78
2022/08/04 06:36:36;;;;;;;7.37;3.63;;;;;;;37.02;24.25;99185.38;5014872;28;20518;-78
2022/08/04 06:39:03;;;;;;;5.83;3.60;;;;;;;37.18;24.02;99181.44;5025672;28;20482;-78
2022/08/04 06:41:29;;;;;;;5.23;3.20;;;;;;;36.95;23.82;99180.19;5015403;28;20458;-78
2022/08/04 06:44:00;;;;;;;2.97;2.70;;;;;;;36.79;24.06;99181.38;4996549;28;20465;-77
2022/08/04 06:46:27;;;;;;;2.97;2.67;;;;;;;36.71;24.37;99187.44;5007145;28;20589;-78
2022/08/04 06:48:54;;;;;;;5.70;2.80;;;;;;;36.47;24.41;99187.19;5005594;28;20479;-77
2022/08/04 06:51:20;;;;;;;5.23;3.73;;;;;;;36.80;23.95;99187.66;5005677;28;20472;-77
2022/08/04 06:53:47;;;;;;;4.10;3.57;;;;;;;37.26;23.53;99184.69;5004153;28;20454;-78
2022/08/04 06:56:15;;;;;;;4.07;3.00;;;;;;;37.71;22.96;99189.06;5000469;28;20460;-78
2022/08/04 06:58:43;;;;;;;3.17;2.70;;;;;;;37.47;23.23;99188.13;5006205;28;20470;-77
2022/08/04 07:01:11;;;;;;;3.23;2.97;;;;;;;37.40;22.93;99185.69;5006541;28;20478;-78
2022/08/04 07:03:37;;;;;;;4.17;3.07;;;;;;;37.73;22.70;99188.78;4997942;28;20459;-78
2022/08/04 07:06:03;;;;;;;5.47;3.20;;;;;;;37.96;22.58;99182.53;4999715;28;21082;-76
2022/08/04 07:08:28;;;;;;;6.17;3.30;;;;;;;37.92;22.69;99188.88;5011747;28;20235;-76
2022/08/04 07:10:57;;;;;;;3.80;3.50;;;;;;;38.16;22.47;99188.94;5006931;28;20629;-76
2022/08/04 07:13:24;;;;;;;4.33;2.93;;;;;;;38.38;22.25;99183.78;5006787;28;20248;-76
2022/08/04 07:15:51;;;;;;;4.10;3.70;;;;;;;38.59;22.10;99187.13;5008456;28;20463;-76
2022/08/04 07:18:16;;;;;;;2.80;2.40;;;;;;;38.86;21.66;99191.16;5009814;28;20482;-76
2022/08/04 07:20:43;;;;;;;4.30;3.90;;;;;;;38.86;21.54;99194.75;5013014;28;20572;-76
2022/08/04 07:23:11;;;;;;;3.90;2.80;;;;;;;38.91;21.16;99188.38;5004156;28;20251;-78
2022/08/04 07:25:37;;;;;;;3.27;2.97;;;;;;;38.80;21.17;99182.19;5006057;28;20478;-76
2022/08/04 07:28:03;;;;;;;3.97;3.17;;;;;;;38.99;20.97;99184.97;5012787;28;20455;-76
2022/08/04 07:30:30;;;;;;;2.93;2.73;;;;;;;39.27;20.36;99190.66;5017007;28;20485;-76
2022/08/04 07:32:56;;;;;;;4.37;3.37;;;;;;;39.27;20.52;99180.47;5009886;28;20228;-76
2022/08/04 07:35:22;;;;;;;3.50;2.80;;;;;;;39.37;20.70;99182.25;5008013;28;20565;-76
2022/08/04 07:37:48;;;;;;;3.33;3.13;;;;;;;39.39;20.52;99185.53;5010113;28;20215;-76
2022/08/04 07:40:14;;;;;;;3.00;2.60;;;;;;;39.59;20.40;99187.97;5005339;28;20458;-76
2022/08/04 07:42:39;;;;;;;5.13;2.77;;;;;;;39.73;20.04;99178.94;5003718;28;20859;-76
2022/08/04 07:45:06;;;;;;;2.93;2.73;;;;;;;39.53;20.51;99182.84;5004166;28;20235;-76
2022/08/04 07:47:32;;;;;;;2.90;2.70;;;;;;;39.59;20.46;99176.13;5011292;28;20217;-76
2022/08/04 07:49:57;;;;;;;3.10;2.80;;;;;;;39.64;20.32;99176.06;5001104;28;20492;-76
2022/08/04 07:52:25;;;;;;;2.80;2.47;;;;;;;39.71;19.56;99173.75;5001520;28;20720;-76
2022/08/04 07:54:52;;;;;;;3.13;2.83;;;;;;;39.37;19.94;99176.75;5004985;28;20203;-76
2022/08/04 07:57:19;;;;;;;3.10;2.90;;;;;;;39.48;19.60;99174.66;5002778;28;20466;-76
2022/08/04 07:59:45;;;;;;;3.77;3.47;;;;;;;39.75;19.60;99176.69;5005649;28;20993;-76
2022/08/04 08:02:13;;;;;;;3.37;3.07;;;;;;;39.97;19.20;99176.09;5006411;28;20471;-76
2022/08/04 08:04:39;;;;;;;3.63;3.33;;;;;;;39.99;19.27;99173.84;5006397;28;20458;-77
2022/08/04 08:07:04;;;;;;;3.23;2.93;;;;;;;40.04;19.20;99169.06;4997381;28;21214;-76
2022/08/04 08:09:32;;;;;;;2.73;2.53;;;;;;;40.40;18.91;99159.31;5007901;28;20645;-76
2022/08/04 08:11:58;;;;;;;4.80;3.60;;;;;;;40.91;18.66;99161.03;5006993;28;20243;-76
2022/08/04 08:14:24;;;;;;;2.73;2.53;;;;;;;41.00;18.61;99159.19;5008296;28;20561;-76
2022/08/04 08:16:49;;;;;;;2.67;2.47;;;;;;;41.02;18.39;99162.44;5000459;28;21180;-76
2022/08/04 08:19:15;;;;;;;3.00;2.80;;;;;;;41.38;18.18;99158.06;5013995;28;20204;-76
2022/08/04 08:21:45;;;;;;;4.20;2.67;;;;;;;41.46;18.11;99160.06;5007536;28;20233;-76
2022/08/04 08:24:11;;;;;;;3.37;3.07;;;;;;;41.23;18.10;99165.56;5004049;28;20200;-76
2022/08/04 08:26:36;;;;;;;2.87;2.67;;;;;;;41.34;17.94;99157.84;5002039;28;20466;-76
2022/08/04 08:29:02;;;;;;;2.70;2.50;;;;;;;41.62;17.77;99160.53;5005562;28;20252;-76
2022/08/04 08:31:28;;;;;;;3.80;3.50;;;;;;;41.34;18.08;99157.84;5012987;28;20687;-76
2022/08/04 08:33:53;;;;;;;2.83;2.60;;;;;;;41.29;17.86;99171.75;5011032;28;20508;-76
2022/08/04 08:36:34;;;;;;;3.13;2.80;;;;;;;41.21;18.24;99173.34;5011673;28;20684;-76
2022/08/04 08:39:02;;;;;;;4.00;2.90;;;;;;;41.36;18.05;99161.13;5008686;28;20354;-76
2022/08/04 08:41:48;;;;;;;2.80;2.60;;;;;;;41.24;18.29;99166.38;5007958;28;20963;-76
2022/08/04 08:44:51;;;;;;;2.57;2.43;;;;;;;40.51;18.86;99163.53;5003941;28;20481;-76
2022/08/04 08:47:37;;;;;;;3.27;2.97;;;;;;;39.60;19.98;99167.59;5006858;28;20455;-76
2022/08/04 08:50:30;;;;;;;2.50;2.30;;;;;;;38.33;21.52;99161.88;5000603;28;20589;-76
2022/08/04 08:53:28;;;;;;;6.03;3.03;;;;;;;37.39;22.83;99168.44;5004203;28;20499;-76
2022/08/04 08:56:12;;;;;;;3.80;2.83;;;;;;;36.74;23.67;99168.50;4998061;28;20497;-76
2022/08/04 08:58:51;;;;;;;3.50;2.57;;;;;;;36.38;24.14;99162.34;5006949;28;21294;-76
2022/08/04 09:01:27;;;;;;;7.30;2.50;;;;;;;36.11;24.51;99171.72;5003362;28;20458;-76
2022/08/04 09:03:58;;;;;;;3.00;2.70;;;;;;;36.10;24.29;99172.78;5013060;28;20511;-76
2022/08/04 09:06:46;;;;;;;3.47;2.90;;;;;;;36.06;24.13;99165.44;5008743;28;20208;-77
2022/08/04 09:09:18;;;;;;;3.30;2.60;;;;;;;36.10;24.45;99163.78;5003058;28;20501;-77
2022/08/04 09:12:03;;;;;;;2.37;2.00;;;;;;;36.10;24.21;99161.03;5012156;28;20478;-77
2022/08/04 09:14:40;;;;;;;2.50;2.30;;;;;;;36.03;24.10;99166.78;5007692;28;21616;-77
2022/08/04 09:17:17;;;;;;;3.70;2.40;;;;;;;36.04;24.13;99162.94;4999485;28;21106;-76
2022/08/04 09:19:56;;;;;;;3.43;2.87;;;;;;;36.26;23.84;99157.16;5004553;28;20496;-76
2022/08/04 09:22:31;;;;;;;2.70;2.50;;;;;;;36.32;23.85;99161.53;5005638;28;21004;-77
2022/08/04 09:25:13;;;;;;;4.63;2.73;;;;;;;36.32;24.25;99161.53;5011589;28;20469;-77
2022/08/04 09:27:57;;;;;;;3.93;3.10;;;;;;;36.52;24.29;99162.56;5001012;28;20532;-76
2022/08/04 09:30:31;;;;;;;4.23;2.63;;;;;;;36.64;23.73;99162.28;5003704;28;20819;-77
2022/08/04 09:33:11;;;;;;;2.70;2.50;;;;;;;36.75;23.74;99161.97;5013544;28;20464;-76
2022/08/04 09:35:46;;;;;;;2.60;2.40;;;;;;;36.81;23.84;99159.16;5007759;28;21137;-77
2022/08/04 09:38:18;;;;;;;3.30;2.47;;;;;;;36.85;23.88;99158.34;5003557;28;20573;-77
2022/08/04 09:40:53;;;;;;;4.80;2.60;;;;;;;36.95;23.56;99152.81;5001695;28;20569;-76
2022/08/04 09:43:43;;;;;;;2.50;2.30;;;;;;;36.78;23.55;99152.34;5006303;28;20512;-77
2022/08/04 09:47:07;;;;;;;3.27;2.97;;;;;;;36.88;23.93;99149.56;5004373;28;20457;-77
2022/08/04 09:49:38;;;;;;;6.00;3.20;;;;;;;37.02;23.88;99147.03;5014842;28;20848;-77
2022/08/04 09:52:10;;;;;;;4.53;2.80;;;;;;;37.10;23.58;99153.84;5022691;28;20482;-77
2022/08/04 09:55:04;;;;;;;3.60;3.00;;;;;;;37.29;23.72;99154.81;5010234;28;20531;-77
2022/08/04 09:57:30;;;;;;;3.87;2.50;;;;;;;37.43;23.27;99149.53;4998554;28;20524;-77
2022/08/04 10:00:07;;;;;;;2.70;2.40;;;;;;;37.42;23.11;99145.94;5003010;28;20466;-77
2022/08/04 10:02:43;;;;;;;4.27;2.87;;;;;;;37.32;23.15;99143.31;5006498;28;20216;-77
2022/08/04 10:05:15;;;;;;;5.30;2.10;;;;;;;37.53;22.88;99138.50;5016414;28;20465;-77
2022/08/04 10:08:10;;;;;;;3.70;3.10;;;;;;;37.75;23.12;99140.75;5001542;28;20829;-77
2022/08/04 10:10:41;;;;;;;3.47;2.30;;;;;;;37.88;22.87;99133.78;5005505;28;21363;-77
2022/08/04 10:13:24;;;;;;;3.93;2.20;;;;;;;38.06;22.30;99130.34;5010647;28;20893;-77
2022/08/04 10:16:14;;;;;;;2.63;2.40;;;;;;;38.28;22.40;99132.56;5015811;28;21399;-77
2022/08/04 10:19:14;;;;;;;3.30;2.27;;;;;;;38.36;22.18;99125.63;5002949;28;20471;-76
2022/08/04 10:22:16;;;;;;;2.23;2.03;;;;;;;38.43;21.47;99126.13;5008083;28;20460;-77
2022/08/04 10:25:19;;;;;;;3.03;2.80;;;;;;;38.48;20.73;99130.72;5007424;28;20493;-77
2022/08/04 10:27:59;;;;;;;6.10;2.50;;;;;;;38.54;20.19;99120.47;5005658;28;20451;-77
2022/08/04 10:30:25;;;;;;;11.47;2.63;;;;;;;38.40;20.51;99117.63;5002141;28;20482;-77
2022/08/04 10:33:02;;;;;;;2.40;2.10;;;;;;;38.49;20.79;99113.97;5003376;28;20454;-77
2022/08/04 10:35:33;;;;;;;2.13;1.93;;;;;;;38.65;20.56;99114.59;5015427;28;20458;-77
2022/08/04 10:38:21;;;;;;;1.97;1.70;;;;;;;38.78;20.27;99114.94;5009313;28;20537;-77
2022/08/04 10:40:55;;;;;;;2.17;1.97;;;;;;;38.90;19.66;99113.44;5013881;28;20552;-77
2022/08/04 10:43:50;;;;;;;2.47;1.67;;;;;;;38.89;18.84;99113.75;5013237;28;20473;-77
2022/08/04 10:46:28;;;;;;;2.97;1.60;;;;;;;38.91;18.91;99111.50;5010197;28;20450;-77
2022/08/04 10:49:09;;;;;;;1.77;1.57;;;;;;;39.02;18.36;99109.41;4995513;28;20533;-77
2022/08/04 10:51:50;;;;;;;3.67;2.07;;;;;;;39.06;18.07;99103.03;5008064;28;20963;-77
2022/08/04 10:54:53;;;;;;;1.37;1.10;;;;;;;39.20;17.63;99103.09;5015882;28;21015;-77
2022/08/04 10:57:27;;;;;;;1.50;1.40;;;;;;;39.16;17.85;99104.81;5008263;28;20466;-77
2022/08/04 11:00:00;;;;;;;6.00;1.70;;;;;;;38.95;17.75;99102.38;5007754;28;20455;-77
2022/08/04 11:02:44;;;;;;;2.13;1.63;;;;;;;38.85;17.62;99101.69;5009711;28;21784;-77
2022/08/04 11:05:18;;;;;;;1.67;1.57;;;;;;;38.89;17.69;99097.28;5018975;28;20486;-77
2022/08/04 11:07:48;;;;;;;1.70;1.40;;;;;;;38.86;17.58;99095.06;5019301;28;20461;-77
2022/08/04 11:10:16;;;;;;;2.00;1.80;;;;;;;38.52;17.40;99098.84;5009480;28;20509;-77
2022/08/04 11:12:45;;;;;;;2.53;1.40;;;;;;;38.26;17.81;99101.84;5013302;28;21008;-78
2022/08/04 11:15:19;;;;;;;2.20;1.47;;;;;;;38.22;17.96;99097.28;5011900;28;20450;-77
2022/08/04 11:17:57;;;;;;;2.00;1.53;;;;;;;38.30;17.54;99091.13;5011085;28;20449;-78
2022/08/04 11:20:34;;;;;;;1.53;1.43;;;;;;;38.34;17.49;99094.09;5010574;28;20454;-77
2022/08/04 11:23:28;;;;;;;2.63;1.53;;;;;;;38.32;17.90;99091.66;5018009;28;20479;-77
2022/08/04 11:26:08;;;;;;;1.70;1.60;;;;;;;38.36;17.61;99091.88;5015283;28;20478;-77
2022/08/04 11:28:39;;;;;;;2.33;1.20;;;;;;;38.29;17.22;99084.84;5008592;28;20501;-78
2022/08/04 11:31:24;;;;;;;1.57;1.43;;;;;;;37.89;16.10;99083.34;5017290;28;20857;-77
2022/08/04 11:34:10;;;;;;;1.30;1.20;;;;;;;37.44;16.44;99082.66;5007587;28;21023;-77
2022/08/04 11:36:48;;;;;;;3.97;1.60;;;;;;;37.22;17.18;99085.03;5010517;28;20454;-77
2022/08/04 11:39:36;;;;;;;2.13;1.70;;;;;;;37.18;17.75;99080.13;5006520;28;20455;-77
2022/08/04 11:42:04;;;;;;;1.63;1.53;;;;;;;37.22;18.32;99080.38;5019332;28;20478;-77
2022/08/04 11:44:48;;;;;;;2.17;1.50;;;;;;;37.14;18.13;99075.50;5015676;28;20588;-77
2022/08/04 11:47:23;;;;;;;2.30;1.80;;;;;;;37.00;18.57;99078.06;5021811;28;20454;-77
2022/08/04 11:50:04;;;;;;;1.60;1.50;;;;;;;37.09;18.66;99075.56;5002800;28;20492;-77
2022/08/04 11:52:32;;;;;;;1.97;1.37;;;;;;;37.26;18.74;99086.09;5022022;28;20474;-77
2022/08/04 11:54:58;;;;;;;2.03;1.40;;;;;;;37.31;19.03;99086.06;4924148;28;20501;-76
2022/08/04 11:57:25;;;;;;;2.50;1.97;;;;;;;37.34;18.61;99088.22;4970075;28;20460;-77
2022/08/04 11:59:54;;;;;;;1.80;1.70;;;;;;;37.25;18.44;99079.00;4966192;28;20527;-77
2022/08/04 12:02:25;;;;;;;2.40;1.83;;;;;;;37.00;18.95;99080.78;4973271;28;20521;-76
2022/08/04 12:04:59;;;;;;;3.00;1.77;;;;;;;36.93;18.72;99075.63;4964522;28;20475;-76
2022/08/04 12:07:44;;;;;;;2.80;1.43;;;;;;;36.94;19.37;99081.91;4977387;28;21032;-77
2022/08/04 12:10:44;;;;;;;2.20;1.70;;;;;;;37.13;19.29;99080.19;4971106;28;20534;-76
2022/08/04 12:13:28;;;;;;;4.07;2.00;;;;;;;37.12;19.03;99075.78;4660269;23;10009478;-78
2022/08/04 12:16:00;;;;;;;2.13;1.80;;;;;;;36.89;19.38;99066.34;4956435;28;20236;-78
2022/08/04 12:18:29;;;;;;;2.00;1.80;;;;;;;36.87;19.29;99065.81;4966356;28;20941;-78
2022/08/04 12:20:59;;;;;;;1.40;1.30;;;;;;;37.04;19.17;99070.91;4965002;28;20960;-78
2022/08/04 12:23:52;;;;;;;1.87;1.63;;;;;;;37.25;19.50;99073.50;4967194;28;20568;-78